Please wait

Feedback

  Fields in red are required!

Regional Coastal Monitoring Programmes

Real time data

« Return to map for other wave, tide and met stations.

Note that these are real-time data and are not quality-controlled.

Swanage Pier

   
 

Latest Met Data:

Time (GMT) Air Pressure (mb) Wind Speed (knots) Wind Speed (ms-1) Gust Speed (knots) Gust Speed (ms-1) Wind direction (°) Air Temperature (°C) Rainfall (mm) Erythemal Radiation (W/m2) UV Index Relative Humidity (%)
22-09-2017 08:00 1020 2.6 1.3 3.8 1.9 260 12.8 0 - - -

Time (GMT) Air Pressure (mb) Wind Speed (knots) Wind Speed (ms-1) Gust Speed (knots) Gust Speed (ms-1) Wind direction (°) Air Temperature (°C) Rainfall (mm) Erythemal Radiation (W/m2) UV Index Relative Humidity (%)
14-09-2017 10:20 1009 20.9 10.4 23.7 11.8 280 14.7 0 - - -
14-09-2017 10:10 1009 16.2 8.1 21.9 11 290 14.6 0 - - -
14-09-2017 10:00 1009 17.7 8.9 21.5 10.8 280 14.1 0 - - -
14-09-2017 09:50 1009 15.9 8 21.9 11 300 14.1 0 - - -
14-09-2017 09:40 1009 22.3 11.2 22.7 11.3 290 13.7 0 - - -
14-09-2017 09:30 1009 19.6 9.8 21.2 10.6 290 13.2 0 - - -
14-09-2017 09:20 1009 16.4 8.2 21.3 10.6 280 13.2 0 - - -
14-09-2017 09:10 1009 12 6 15.2 7.6 270 13 0 - - -
14-09-2017 09:00 1009 14.9 7.4 18.4 9.2 280 12.8 0 - - -
14-09-2017 08:50 1008 13.2 6.6 14.7 7.4 280 12.9 0 - - -
14-09-2017 08:40 1008 13.6 6.8 16.4 8.2 290 12.9 0 - - -
14-09-2017 08:30 1008 15.4 7.7 19.1 9.6 290 13 0 - - -
14-09-2017 08:20 1008 14.1 7.1 17 8.5 290 12.6 0 - - -
14-09-2017 08:10 1007 15.9 8 18.3 9.2 290 12.3 0 - - -
14-09-2017 08:00 1007 13 6.5 15 7.5 280 12.2 0 - - -
14-09-2017 07:50 1007 14.4 7.2 18.8 9.4 280 11.9 0 - - -
14-09-2017 07:40 1007 13.5 6.7 16.1 8.1 290 12 0 - - -
14-09-2017 07:30 1007 15.4 7.7 15.4 7.7 280 11.9 0 - - -
14-09-2017 07:20 1006 13.6 6.8 15.1 7.6 290 11.6 0 - - -
14-09-2017 07:10 1006 11.5 5.7 14.9 7.5 280 11.3 0 - - -
14-09-2017 07:00 1006 12.1 6.1 16 8 290 11.1 0 - - -
14-09-2017 06:50 1006 12.4 6.2 15.6 7.8 290 11 0 - - -
14-09-2017 06:40 1006 13.4 6.7 14.5 7.3 290 11.1 0 - - -
14-09-2017 06:30 1006 13.5 6.8 16.6 8.3 280 10.7 0 - - -
14-09-2017 06:20 1005 12.4 6.2 14.6 7.3 280 10.4 0 - - -
14-09-2017 06:10 1005 12.9 6.4 16.8 8.4 280 10.3 0 - - -
14-09-2017 06:00 1005 12.8 6.4 15.4 7.7 280 10.3 0 - - -
14-09-2017 05:50 1005 9.9 5 10.8 5.4 290 10.1 0 - - -
14-09-2017 05:40 1005 10.9 5.4 12.8 6.4 280 9.9 0 - - -
14-09-2017 05:30 1005 11.7 5.9 13.6 6.8 280 9.8 0 - - -
14-09-2017 05:20 1004 11.9 6 14.7 7.4 280 10 0 - - -
14-09-2017 05:10 1004 11.8 5.9 14.2 7.1 280 9.8 0 - - -
14-09-2017 05:00 1004 11.4 5.7 13.9 7 280 9.9 0 - - -
14-09-2017 04:50 1004 13.7 6.8 15.5 7.8 280 9.8 0 - - -
14-09-2017 04:40 1004 13.1 6.6 14.2 7.1 280 9.7 0 - - -
14-09-2017 04:30 1004 12 6 14.2 7.1 290 9.9 0 - - -
14-09-2017 04:20 1004 11.7 5.8 14.6 7.3 280 10 0 - - -
14-09-2017 04:10 1003 11.5 5.7 13.8 6.9 290 9.9 0 - - -
14-09-2017 04:00 1003 11 5.5 12.9 6.5 280 10.3 0 - - -
14-09-2017 03:50 1003 12.5 6.3 14.9 7.5 290 10.3 0 - - -
14-09-2017 03:40 1003 11.7 5.8 13 6.5 290 10.4 0 - - -
14-09-2017 03:30 1003 13.2 6.6 15.8 7.9 290 10.7 0 - - -
14-09-2017 03:20 1003 15 7.5 21.6 10.8 280 10.5 0 - - -
14-09-2017 03:10 1003 11.2 5.6 14.2 7.1 280 10.4 0 - - -
14-09-2017 03:00 1003 9.3 4.7 9.8 4.9 290 10.4 0 - - -
14-09-2017 02:50 1003 12.9 6.4 15.1 7.6 290 10.4 0 - - -
14-09-2017 02:40 1003 10.9 5.5 13.4 6.7 280 10.5 0 - - -
14-09-2017 02:30 1002 9.9 5 11.6 5.8 290 10.3 0 - - -
14-09-2017 02:20 1002 8.7 4.4 10.4 5.2 280 10.3 0 - - -
14-09-2017 02:10 1002 9 4.5 11 5.5 280 10.7 0 - - -
14-09-2017 02:00 1002 10.8 5.4 13.1 6.6 280 10.9 0 - - -
14-09-2017 01:50 1002 10.1 5 12.6 6.3 280 10.8 0 - - -
14-09-2017 01:40 1002 10.2 5.1 13.4 6.7 280 10.8 0 - - -
14-09-2017 01:30 1002 7.4 3.7 9.4 4.7 290 11 0 - - -
14-09-2017 01:20 1002 9.3 4.7 10.4 5.2 290 11 0 - - -
14-09-2017 01:10 1002 7.5 3.8 8.8 4.4 290 11.1 0 - - -
14-09-2017 01:00 1002 6.5 3.2 8.2 4.1 280 11.2 0 - - -
14-09-2017 00:50 1002 8.1 4.1 10.7 5.4 280 11.1 0 - - -
14-09-2017 00:40 1002 8.4 4.2 8.9 4.5 270 11 0 - - -
14-09-2017 00:30 1002 7.9 4 9 4.5 280 11.2 0 - - -
14-09-2017 00:20 1002 9 4.5 10.8 5.4 290 11.2 0 - - -
14-09-2017 00:10 1002 8.2 4.1 10.6 5.3 280 11.6 0 - - -
14-09-2017 00:00 1001 9.6 4.8 11.2 5.6 290 11.7 0 - - -
13-09-2017 23:50 1001 9.5 4.7 11 5.5 280 12 0 - - -
13-09-2017 23:40 1002 13.7 6.8 17.3 8.7 280 12.1 0 - - -
13-09-2017 23:30 1002 11.7 5.9 13.5 6.8 280 12.5 0 - - -
13-09-2017 23:20 1001 10.9 5.5 15.4 7.7 290 12.3 0 - - -
13-09-2017 23:10 1001 11.3 5.7 11.8 5.9 280 12.3 0 - - -
13-09-2017 23:00 1001 13.3 6.6 14.8 7.4 290 12.7 0 - - -
13-09-2017 22:50 1002 14.4 7.2 16.8 8.4 280 12.9 0 - - -
13-09-2017 22:40 1002 15.3 7.6 19.1 9.6 290 13.1 0 - - -
13-09-2017 22:30 1001 13.1 6.6 16.4 8.2 280 13.7 0 - - -
13-09-2017 22:20 1001 10.6 5.3 11.9 6 280 13.7 0 - - -
13-09-2017 22:10 1001 9.9 4.9 11.8 5.9 280 13.4 0 - - -
13-09-2017 22:00 1001 9 4.5 12 6 300 13.5 0 - - -
13-09-2017 21:50 1001 7.9 4 10.8 5.4 290 13.7 0 - - -
13-09-2017 21:40 1001 9 4.5 9.4 4.7 280 13.8 0 - - -
13-09-2017 21:30 1001 10.6 5.3 13 6.5 280 14.1 0 - - -
13-09-2017 21:20 1001 13.7 6.9 16.9 8.5 290 14.4 0 - - -
13-09-2017 21:10 1001 13.1 6.5 16.8 8.4 270 14.6 0 - - -
13-09-2017 21:00 1001 7.9 3.9 11.2 5.6 260 14.5 0 - - -
13-09-2017 20:50 1001 12.6 6.3 13 6.5 280 14.5 0 - - -
13-09-2017 20:40 1001 8.7 4.3 10.3 5.2 270 14.3 0 - - -
13-09-2017 20:30 1001 9.3 4.7 13 6.5 270 14.3 0 - - -
13-09-2017 20:20 1001 12 6 15.2 7.6 270 14.6 0 - - -
13-09-2017 20:10 1001 13.2 6.6 13.2 6.6 270 14.8 0 - - -
13-09-2017 20:00 1001 14.4 7.2 18.8 9.4 270 14.9 0 - - -
13-09-2017 19:50 1001 7.8 3.9 10.7 5.4 260 14.8 0 - - -
13-09-2017 19:40 1001 8.5 4.3 10.4 5.2 280 14.8 0 - - -
13-09-2017 19:30 1001 7.7 3.8 10.6 5.3 260 15 0 - - -
13-09-2017 19:20 1001 13.7 6.9 15.2 7.6 270 15 0 - - -
13-09-2017 19:10 1001 10.9 5.4 13.2 6.6 260 15 0 - - -
13-09-2017 19:00 1001 14 7 16.3 8.2 260 15.2 0 - - -
13-09-2017 18:50 1001 9.3 4.7 15.6 7.8 260 15 0 - - -
13-09-2017 18:40 1001 7 3.5 10.2 5.1 270 14.8 0 - - -
13-09-2017 18:30 1001 8.4 4.2 10.4 5.2 250 15.4 0 - - -
13-09-2017 18:20 1001 9.3 4.7 14.3 7.2 270 15.4 0 - - -
13-09-2017 18:10 1001 9.9 4.9 14.5 7.3 270 15.5 0 - - -
13-09-2017 18:00 1001 11 5.5 14.4 7.2 260 15.5 0 - - -
13-09-2017 17:50 1001 11.3 5.6 11.8 5.9 270 15.6 0 - - -
13-09-2017 17:40 1001 13.8 6.9 17.8 8.9 260 15.8 0 - - -
13-09-2017 17:30 1001 12.2 6.1 15.2 7.6 260 16 0 - - -
13-09-2017 17:20 1001 14.4 7.2 18.4 9.2 270 16.1 0 - - -
13-09-2017 17:10 1001 12.7 6.4 17.2 8.6 270 16.1 0 - - -
13-09-2017 17:00 1001 10.8 5.4 15.2 7.6 270 16.2 0 - - -
13-09-2017 16:50 1001 14.6 7.3 19.1 9.5 260 16.3 0 - - -
13-09-2017 16:40 1001 13.8 6.9 17.3 8.7 270 16.3 0 - - -
13-09-2017 16:30 1001 19.7 9.8 25.2 12.6 270 16.3 0 - - -
13-09-2017 16:20 1001 19.5 9.8 22.2 11.1 270 16.3 0 - - -
13-09-2017 16:10 1001 23 11.5 28.5 14.2 270 16.3 0 - - -
13-09-2017 16:00 1001 20.3 10.1 23.9 12 270 16.1 0 - - -
13-09-2017 15:50 1001 22.1 11 30.4 15.2 270 16.2 0 - - -
13-09-2017 15:40 1001 18.9 9.4 23.1 11.6 270 16.1 0 - - -
13-09-2017 15:30 1001 21.3 10.6 26.1 13 250 15.8 0 - - -
13-09-2017 15:20 1001 13.9 7 19.9 10 250 15.6 0 - - -
13-09-2017 15:10 1001 17.3 8.7 28.1 14 250 15.2 0 - - -
13-09-2017 15:00 1001 19.9 10 24.1 12.1 260 15 0 - - -
13-09-2017 14:50 1001 18.3 9.2 23.3 11.6 260 14.8 0 - - -
13-09-2017 14:40 1001 17.1 8.5 26.5 13.2 260 14.6 0 - - -
13-09-2017 14:30 1001 20.7 10.3 31.9 15.9 270 15.5 0 - - -
13-09-2017 14:20 1001 13 6.5 18.4 9.2 250 16 0 - - -
13-09-2017 14:10 1001 17 8.5 23.1 11.5 280 16 0 - - -
13-09-2017 14:00 1001 17.6 8.8 22.7 11.3 270 15.9 0 - - -
13-09-2017 13:50 1001 13 6.5 17.2 8.6 260 15.6 0 - - -
13-09-2017 13:40 1001 16.2 8.1 16.5 8.3 290 15.4 0 - - -
13-09-2017 13:30 1001 12.9 6.5 17.3 8.6 260 15.2 0 - - -
13-09-2017 13:20 1002 15.3 7.7 21 10.5 250 15 0 - - -
13-09-2017 13:10 1002 15.5 7.8 21.1 10.6 240 14.7 0 - - -
13-09-2017 13:00 1002 15.6 7.8 24.2 12.1 240 15.8 0 - - -
13-09-2017 12:50 1002 16.6 8.3 19.3 9.7 250 16.5 0 - - -
13-09-2017 12:40 1002 18.6 9.3 29.1 14.5 240 16.4 0 - - -
13-09-2017 12:30 1002 17 8.5 25.1 12.5 250 16.8 0 - - -
13-09-2017 12:20 1002 16.9 8.4 27.1 13.5 250 16.6 0 - - -
13-09-2017 12:10 1002 18.2 9.1 22 11 250 16.2 0 - - -
13-09-2017 12:00 1002 10.1 5.1 16.1 8.1 250 16.5 0 - - -
13-09-2017 11:50 1002 20.1 10.1 30 15 260 16.2 0 - - -
13-09-2017 11:40 1002 20.6 10.3 27.8 13.9 260 15.8 0 - - -
13-09-2017 11:30 1002 20.8 10.4 23.5 11.8 270 15.9 0 - - -
13-09-2017 11:20 1002 20.1 10 25 12.5 250 15.9 0 - - -
13-09-2017 11:10 1002 16.8 8.4 22.5 11.2 260 15.7 0 - - -
13-09-2017 11:00 1002 15.4 7.7 21.1 10.6 260 15.3 0 - - -
13-09-2017 10:50 1002 19.5 9.8 21.7 10.8 260 15 0 - - -
13-09-2017 10:40 1002 18.8 9.4 26.5 13.3 260 15 0 - - -
13-09-2017 10:30 1002 18 9 25.7 12.8 260 14.5 0 - - -